Terminal Aerodrome Forecast
Issued by NWS Wilmington, OH

Current Version | Previous Version | Graphics & Text | Print | Product List | Glossary On
Versions: 1 2 3 4 5 6 7 8 9 10 11 12 13 14 15 16 17 18 19 20 21 22 23 24 25
356
FTUS41 KILN 072056 AAA
TAFCVG
TAF AMD
KCVG 072056Z 0721/0824 21012G20KT P6SM SCT150 BKN250
     FM072300 20009KT P6SM BKN150
     FM080300 21006KT P6SM VCSH BKN050 OVC120
     FM080600 23005KT P6SM SCT025 OVC035
     FM081500 27011KT P6SM VCSH SCT050 BKN100
     FM081800 28011KT P6SM VCSH OVC018
     FM082100 28011G19KT 5SM -RASN OVC015=

USA.gov is the U.S. government's official web portal to all federal, state and local government web resources and services.